sensor_id;sensor_type;location;lat;lon;timestamp;temperature;humidity
43808;DHT22;29438;50.664;10.098;2023-12-28T00:01:08;7.40;54.80
43808;DHT22;29438;50.664;10.098;2023-12-28T00:03:34;7.50;54.20
43808;DHT22;29438;50.664;10.098;2023-12-28T00:05:59;7.40;54.70
43808;DHT22;29438;50.664;10.098;2023-12-28T00:08:25;7.50;54.50
43808;DHT22;29438;50.664;10.098;2023-12-28T00:10:50;7.50;54.40
43808;DHT22;29438;50.664;10.098;2023-12-28T00:13:17;7.50;54.00
43808;DHT22;29438;50.664;10.098;2023-12-28T00:15:42;7.40;55.00
43808;DHT22;29438;50.664;10.098;2023-12-28T00:18:08;7.40;54.60
43808;DHT22;29438;50.664;10.098;2023-12-28T00:20:33;7.30;55.40
43808;DHT22;29438;50.664;10.098;2023-12-28T00:22:59;7.20;54.80
43808;DHT22;29438;50.664;10.098;2023-12-28T00:25:25;7.20;55.40
43808;DHT22;29438;50.664;10.098;2023-12-28T00:27:51;7.20;55.70
43808;DHT22;29438;50.664;10.098;2023-12-28T00:30:16;7.20;55.20
43808;DHT22;29438;50.664;10.098;2023-12-28T00:32:43;7.20;55.40
43808;DHT22;29438;50.664;10.098;2023-12-28T00:35:10;7.10;56.70
43808;DHT22;29438;50.664;10.098;2023-12-28T00:37:35;7.00;57.20
43808;DHT22;29438;50.664;10.098;2023-12-28T00:40:01;6.90;56.90
43808;DHT22;29438;50.664;10.098;2023-12-28T00:42:26;6.80;57.60
43808;DHT22;29438;50.664;10.098;2023-12-28T00:44:52;6.70;58.20
43808;DHT22;29438;50.664;10.098;2023-12-28T00:47:18;7.00;57.30
43808;DHT22;29438;50.664;10.098;2023-12-28T00:49:43;6.90;57.10
43808;DHT22;29438;50.664;10.098;2023-12-28T00:52:09;7.00;57.00
43808;DHT22;29438;50.664;10.098;2023-12-28T00:54:36;7.20;57.10
43808;DHT22;29438;50.664;10.098;2023-12-28T00:57:04;7.20;57.10
43808;DHT22;29438;50.664;10.098;2023-12-28T00:59:30;7.00;57.90
43808;DHT22;29438;50.664;10.098;2023-12-28T01:01:56;7.10;57.40
43808;DHT22;29438;50.664;10.098;2023-12-28T01:04:22;7.10;57.80
43808;DHT22;29438;50.664;10.098;2023-12-28T01:06:49;7.20;58.10
43808;DHT22;29438;50.664;10.098;2023-12-28T01:09:15;7.00;59.20
43808;DHT22;29438;50.664;10.098;2023-12-28T01:11:40;6.80;59.40
43808;DHT22;29438;50.664;10.098;2023-12-28T01:14:06;6.90;59.30
43808;DHT22;29438;50.664;10.098;2023-12-28T01:16:31;7.10;58.80
43808;DHT22;29438;50.664;10.098;2023-12-28T01:18:57;7.10;59.20
43808;DHT22;29438;50.664;10.098;2023-12-28T01:21:22;7.00;59.30
43808;DHT22;29438;50.664;10.098;2023-12-28T01:23:50;7.10;59.00
43808;DHT22;29438;50.664;10.098;2023-12-28T01:26:16;7.10;59.50
43808;DHT22;29438;50.664;10.098;2023-12-28T01:28:42;6.80;60.90
43808;DHT22;29438;50.664;10.098;2023-12-28T01:31:08;6.90;60.50
43808;DHT22;29438;50.664;10.098;2023-12-28T01:33:34;7.00;60.40
43808;DHT22;29438;50.664;10.098;2023-12-28T01:36:01;6.90;61.00
43808;DHT22;29438;50.664;10.098;2023-12-28T01:38:27;7.00;61.30
43808;DHT22;29438;50.664;10.098;2023-12-28T01:40:52;7.00;61.20
43808;DHT22;29438;50.664;10.098;2023-12-28T01:43:18;7.20;61.50
43808;DHT22;29438;50.664;10.098;2023-12-28T01:45:44;7.30;61.30
43808;DHT22;29438;50.664;10.098;2023-12-28T01:48:10;7.50;60.70
43808;DHT22;29438;50.664;10.098;2023-12-28T01:50:37;7.70;60.30
43808;DHT22;29438;50.664;10.098;2023-12-28T01:53:03;7.80;59.70
43808;DHT22;29438;50.664;10.098;2023-12-28T01:55:29;7.70;60.10
43808;DHT22;29438;50.664;10.098;2023-12-28T01:57:56;7.70;60.80
43808;DHT22;29438;50.664;10.098;2023-12-28T02:00:22;7.70;61.40
43808;DHT22;29438;50.664;10.098;2023-12-28T02:02:48;7.60;61.80
43808;DHT22;29438;50.664;10.098;2023-12-28T02:05:14;7.60;62.50
43808;DHT22;29438;50.664;10.098;2023-12-28T02:07:40;7.70;62.00
43808;DHT22;29438;50.664;10.098;2023-12-28T02:10:07;7.70;63.70
43808;DHT22;29438;50.664;10.098;2023-12-28T02:12:33;7.60;65.80
43808;DHT22;29438;50.664;10.098;2023-12-28T02:14:59;7.40;66.30
43808;DHT22;29438;50.664;10.098;2023-12-28T02:17:47;7.30;67.60
43808;DHT22;29438;50.664;10.098;2023-12-28T02:20:13;7.10;68.40
43808;DHT22;29438;50.664;10.098;2023-12-28T02:22:39;7.10;67.50
43808;DHT22;29438;50.664;10.098;2023-12-28T02:25:06;7.10;67.80
43808;DHT22;29438;50.664;10.098;2023-12-28T02:27:36;7.10;68.30
43808;DHT22;29438;50.664;10.098;2023-12-28T02:30:04;7.10;68.10
43808;DHT22;29438;50.664;10.098;2023-12-28T02:35:33;7.20;67.60
43808;DHT22;29438;50.664;10.098;2023-12-28T02:38:08;7.20;67.80
43808;DHT22;29438;50.664;10.098;2023-12-28T02:40:37;7.30;68.80
43808;DHT22;29438;50.664;10.098;2023-12-28T02:43:09;7.30;68.30
43808;DHT22;29438;50.664;10.098;2023-12-28T02:45:35;7.30;69.40
43808;DHT22;29438;50.664;10.098;2023-12-28T02:48:01;7.40;69.40
43808;DHT22;29438;50.664;10.098;2023-12-28T02:50:27;7.30;70.00
43808;DHT22;29438;50.664;10.098;2023-12-28T02:52:52;7.40;70.10
43808;DHT22;29438;50.664;10.098;2023-12-28T02:55:18;7.30;70.10
43808;DHT22;29438;50.664;10.098;2023-12-28T02:57:44;7.30;70.50
43808;DHT22;29438;50.664;10.098;2023-12-28T03:00:10;7.30;71.70
43808;DHT22;29438;50.664;10.098;2023-12-28T03:02:36;7.20;73.00
43808;DHT22;29438;50.664;10.098;2023-12-28T03:05:05;7.10;73.20
43808;DHT22;29438;50.664;10.098;2023-12-28T03:07:31;7.00;74.40
43808;DHT22;29438;50.664;10.098;2023-12-28T03:09:57;6.80;75.50
43808;DHT22;29438;50.664;10.098;2023-12-28T03:12:23;6.70;75.90
43808;DHT22;29438;50.664;10.098;2023-12-28T03:14:49;6.70;77.00
43808;DHT22;29438;50.664;10.098;2023-12-28T03:17:14;6.70;77.00
43808;DHT22;29438;50.664;10.098;2023-12-28T03:19:40;6.60;77.10
43808;DHT22;29438;50.664;10.098;2023-12-28T03:22:05;6.70;78.00
43808;DHT22;29438;50.664;10.098;2023-12-28T03:24:31;6.60;78.30
43808;DHT22;29438;50.664;10.098;2023-12-28T03:26:56;6.50;78.40
43808;DHT22;29438;50.664;10.098;2023-12-28T03:29:22;6.50;78.70
43808;DHT22;29438;50.664;10.098;2023-12-28T03:31:47;6.50;78.70
43808;DHT22;29438;50.664;10.098;2023-12-28T03:34:13;6.40;79.60
43808;DHT22;29438;50.664;10.098;2023-12-28T03:36:39;6.30;80.20
43808;DHT22;29438;50.664;10.098;2023-12-28T03:39:04;6.30;80.40
43808;DHT22;29438;50.664;10.098;2023-12-28T03:41:31;6.30;80.50
43808;DHT22;29438;50.664;10.098;2023-12-28T03:43:56;6.30;81.30
43808;DHT22;29438;50.664;10.098;2023-12-28T03:46:22;6.30;81.70
43808;DHT22;29438;50.664;10.098;2023-12-28T03:48:47;6.30;82.30
43808;DHT22;29438;50.664;10.098;2023-12-28T03:51:14;6.20;83.10
43808;DHT22;29438;50.664;10.098;2023-12-28T03:53:40;6.20;83.10
43808;DHT22;29438;50.664;10.098;2023-12-28T03:56:06;6.20;83.30
43808;DHT22;29438;50.664;10.098;2023-12-28T03:58:32;6.20;83.30
43808;DHT22;29438;50.664;10.098;2023-12-28T04:00:57;6.20;83.40
43808;DHT22;29438;50.664;10.098;2023-12-28T04:03:22;6.10;83.90
43808;DHT22;29438;50.664;10.098;2023-12-28T04:05:48;6.10;84.20
43808;DHT22;29438;50.664;10.098;2023-12-28T04:08:13;6.00;84.90
43808;DHT22;29438;50.664;10.098;2023-12-28T04:10:39;6.00;85.00
43808;DHT22;29438;50.664;10.098;2023-12-28T04:13:05;5.90;85.70
43808;DHT22;29438;50.664;10.098;2023-12-28T04:15:30;5.80;87.00
43808;DHT22;29438;50.664;10.098;2023-12-28T04:17:56;5.70;88.10
43808;DHT22;29438;50.664;10.098;2023-12-28T04:20:22;5.50;88.70
43808;DHT22;29438;50.664;10.098;2023-12-28T04:22:48;5.50;89.90
43808;DHT22;29438;50.664;10.098;2023-12-28T04:25:13;5.40;90.30
43808;DHT22;29438;50.664;10.098;2023-12-28T04:27:42;5.30;90.60
43808;DHT22;29438;50.664;10.098;2023-12-28T04:30:11;5.30;90.90
43808;DHT22;29438;50.664;10.098;2023-12-28T04:32:37;5.20;90.90
43808;DHT22;29438;50.664;10.098;2023-12-28T04:35:03;5.20;91.10
43808;DHT22;29438;50.664;10.098;2023-12-28T04:37:29;5.30;91.40
43808;DHT22;29438;50.664;10.098;2023-12-28T04:39:56;5.30;91.50
43808;DHT22;29438;50.664;10.098;2023-12-28T04:42:22;5.30;91.50
43808;DHT22;29438;50.664;10.098;2023-12-28T04:44:47;5.30;91.40
43808;DHT22;29438;50.664;10.098;2023-12-28T04:47:13;5.40;91.20
43808;DHT22;29438;50.664;10.098;2023-12-28T04:49:38;5.50;91.00
43808;DHT22;29438;50.664;10.098;2023-12-28T04:52:04;5.40;91.10
43808;DHT22;29438;50.664;10.098;2023-12-28T04:54:29;5.40;91.30
43808;DHT22;29438;50.664;10.098;2023-12-28T04:56:55;5.40;91.50
43808;DHT22;29438;50.664;10.098;2023-12-28T04:59:20;5.50;91.50
43808;DHT22;29438;50.664;10.098;2023-12-28T05:01:46;5.50;91.50
43808;DHT22;29438;50.664;10.098;2023-12-28T05:04:11;5.50;91.40
43808;DHT22;29438;50.664;10.098;2023-12-28T05:06:37;5.50;91.60
43808;DHT22;29438;50.664;10.098;2023-12-28T05:09:03;5.50;91.50
43808;DHT22;29438;50.664;10.098;2023-12-28T05:11:29;5.50;91.50
43808;DHT22;29438;50.664;10.098;2023-12-28T05:13:55;5.50;91.40
43808;DHT22;29438;50.664;10.098;2023-12-28T05:16:20;5.50;91.60
43808;DHT22;29438;50.664;10.098;2023-12-28T05:18:46;5.60;91.60
43808;DHT22;29438;50.664;10.098;2023-12-28T05:21:13;5.60;91.50
43808;DHT22;29438;50.664;10.098;2023-12-28T05:23:39;5.60;91.30
43808;DHT22;29438;50.664;10.098;2023-12-28T05:26:04;5.60;91.30
43808;DHT22;29438;50.664;10.098;2023-12-28T05:28:30;5.60;91.40
43808;DHT22;29438;50.664;10.098;2023-12-28T05:30:55;5.70;91.40
43808;DHT22;29438;50.664;10.098;2023-12-28T05:33:21;5.70;91.30
43808;DHT22;29438;50.664;10.098;2023-12-28T05:35:48;5.70;91.00
43808;DHT22;29438;50.664;10.098;2023-12-28T05:38:13;5.80;91.10
43808;DHT22;29438;50.664;10.098;2023-12-28T05:40:39;5.80;91.10
43808;DHT22;29438;50.664;10.098;2023-12-28T05:43:05;5.70;91.10
43808;DHT22;29438;50.664;10.098;2023-12-28T05:45:30;5.80;91.20
43808;DHT22;29438;50.664;10.098;2023-12-28T05:47:56;5.70;91.20
43808;DHT22;29438;50.664;10.098;2023-12-28T05:50:21;5.80;91.20
43808;DHT22;29438;50.664;10.098;2023-12-28T05:52:47;5.70;91.20
43808;DHT22;29438;50.664;10.098;2023-12-28T05:55:13;5.80;91.10
43808;DHT22;29438;50.664;10.098;2023-12-28T05:57:38;5.80;91.20
43808;DHT22;29438;50.664;10.098;2023-12-28T06:00:05;5.80;91.20
43808;DHT22;29438;50.664;10.098;2023-12-28T06:02:31;5.70;91.20
43808;DHT22;29438;50.664;10.098;2023-12-28T06:04:57;5.80;91.30
43808;DHT22;29438;50.664;10.098;2023-12-28T06:07:22;5.70;91.30
43808;DHT22;29438;50.664;10.098;2023-12-28T06:09:48;5.80;91.30
43808;DHT22;29438;50.664;10.098;2023-12-28T06:12:13;5.80;91.40
43808;DHT22;29438;50.664;10.098;2023-12-28T06:14:40;5.80;91.40
43808;DHT22;29438;50.664;10.098;2023-12-28T06:17:05;5.80;91.40
43808;DHT22;29438;50.664;10.098;2023-12-28T06:19:31;5.80;91.50
43808;DHT22;29438;50.664;10.098;2023-12-28T06:21:56;5.80;91.50
43808;DHT22;29438;50.664;10.098;2023-12-28T06:24:23;5.80;91.60
43808;DHT22;29438;50.664;10.098;2023-12-28T06:26:49;5.90;91.50
43808;DHT22;29438;50.664;10.098;2023-12-28T06:29:14;5.90;91.60
43808;DHT22;29438;50.664;10.098;2023-12-28T06:31:40;5.90;91.50
43808;DHT22;29438;50.664;10.098;2023-12-28T06:34:06;5.90;91.60
43808;DHT22;29438;50.664;10.098;2023-12-28T06:36:32;5.80;91.70
43808;DHT22;29438;50.664;10.098;2023-12-28T06:38:58;5.90;91.60
43808;DHT22;29438;50.664;10.098;2023-12-28T06:41:25;5.90;91.50
43808;DHT22;29438;50.664;10.098;2023-12-28T06:43:51;5.90;91.50
43808;DHT22;29438;50.664;10.098;2023-12-28T06:46:17;6.00;91.60
43808;DHT22;29438;50.664;10.098;2023-12-28T06:48:43;6.00;91.50
43808;DHT22;29438;50.664;10.098;2023-12-28T06:51:09;6.00;91.40
43808;DHT22;29438;50.664;10.098;2023-12-28T06:53:34;5.90;91.50
43808;DHT22;29438;50.664;10.098;2023-12-28T06:56:00;5.90;91.60
43808;DHT22;29438;50.664;10.098;2023-12-28T06:58:25;6.00;91.50
43808;DHT22;29438;50.664;10.098;2023-12-28T07:00:51;6.00;91.40
43808;DHT22;29438;50.664;10.098;2023-12-28T07:03:16;6.00;91.30
43808;DHT22;29438;50.664;10.098;2023-12-28T07:05:42;6.00;91.30
43808;DHT22;29438;50.664;10.098;2023-12-28T07:08:08;6.00;91.20
43808;DHT22;29438;50.664;10.098;2023-12-28T07:10:33;6.00;91.20
43808;DHT22;29438;50.664;10.098;2023-12-28T07:12:59;5.90;91.20
43808;DHT22;29438;50.664;10.098;2023-12-28T07:15:24;6.00;91.00
43808;DHT22;29438;50.664;10.098;2023-12-28T07:17:50;6.00;90.90
43808;DHT22;29438;50.664;10.098;2023-12-28T07:20:16;6.10;91.00
43808;DHT22;29438;50.664;10.098;2023-12-28T07:22:41;6.20;90.70
43808;DHT22;29438;50.664;10.098;2023-12-28T07:25:07;6.10;90.80
43808;DHT22;29438;50.664;10.098;2023-12-28T07:27:36;6.10;90.90
43808;DHT22;29438;50.664;10.098;2023-12-28T07:30:05;6.10;90.80
43808;DHT22;29438;50.664;10.098;2023-12-28T07:32:30;6.10;90.60
43808;DHT22;29438;50.664;10.098;2023-12-28T07:34:56;6.40;91.80
43808;DHT22;29438;50.664;10.098;2023-12-28T07:37:21;6.30;90.60
43808;DHT22;29438;50.664;10.098;2023-12-28T07:39:47;6.30;90.30
43808;DHT22;29438;50.664;10.098;2023-12-28T07:42:13;6.20;90.30
43808;DHT22;29438;50.664;10.098;2023-12-28T07:44:39;6.20;90.30
43808;DHT22;29438;50.664;10.098;2023-12-28T07:47:04;6.20;90.20
43808;DHT22;29438;50.664;10.098;2023-12-28T07:49:31;6.20;90.10
43808;DHT22;29438;50.664;10.098;2023-12-28T07:51:56;6.10;90.30
43808;DHT22;29438;50.664;10.098;2023-12-28T07:54:22;6.10;90.40
43808;DHT22;29438;50.664;10.098;2023-12-28T07:56:47;6.20;90.10
43808;DHT22;29438;50.664;10.098;2023-12-28T07:59:13;6.30;90.00
43808;DHT22;29438;50.664;10.098;2023-12-28T08:01:38;6.20;90.00
43808;DHT22;29438;50.664;10.098;2023-12-28T08:04:04;6.30;90.00
43808;DHT22;29438;50.664;10.098;2023-12-28T08:06:29;6.30;89.90
43808;DHT22;29438;50.664;10.098;2023-12-28T08:08:58;6.30;89.50
43808;DHT22;29438;50.664;10.098;2023-12-28T08:11:28;6.40;89.50
43808;DHT22;29438;50.664;10.098;2023-12-28T08:13:53;6.40;89.40
43808;DHT22;29438;50.664;10.098;2023-12-28T08:16:19;6.40;89.50
43808;DHT22;29438;50.664;10.098;2023-12-28T08:18:45;6.40;89.40
43808;DHT22;29438;50.664;10.098;2023-12-28T08:21:10;6.50;89.00
43808;DHT22;29438;50.664;10.098;2023-12-28T08:23:36;6.60;88.90
43808;DHT22;29438;50.664;10.098;2023-12-28T08:26:01;6.60;88.60
43808;DHT22;29438;50.664;10.098;2023-12-28T08:28:28;6.70;88.60
43808;DHT22;29438;50.664;10.098;2023-12-28T08:30:53;6.70;88.10
43808;DHT22;29438;50.664;10.098;2023-12-28T08:33:20;6.70;88.10
43808;DHT22;29438;50.664;10.098;2023-12-28T08:35:45;6.80;87.80
43808;DHT22;29438;50.664;10.098;2023-12-28T08:38:11;6.80;87.80
43808;DHT22;29438;50.664;10.098;2023-12-28T08:40:36;6.70;87.90
43808;DHT22;29438;50.664;10.098;2023-12-28T08:43:02;6.70;87.70
43808;DHT22;29438;50.664;10.098;2023-12-28T08:45:27;6.70;87.80
43808;DHT22;29438;50.664;10.098;2023-12-28T08:47:53;6.70;87.60
43808;DHT22;29438;50.664;10.098;2023-12-28T08:50:19;6.70;87.60
43808;DHT22;29438;50.664;10.098;2023-12-28T08:52:44;6.70;87.60
43808;DHT22;29438;50.664;10.098;2023-12-28T08:55:09;6.70;87.20
43808;DHT22;29438;50.664;10.098;2023-12-28T08:57:35;6.70;87.20
43808;DHT22;29438;50.664;10.098;2023-12-28T09:00:00;6.70;87.20
43808;DHT22;29438;50.664;10.098;2023-12-28T09:02:28;6.70;87.00
43808;DHT22;29438;50.664;10.098;2023-12-28T09:04:54;6.80;87.00
43808;DHT22;29438;50.664;10.098;2023-12-28T09:07:19;6.80;87.00
43808;DHT22;29438;50.664;10.098;2023-12-28T09:09:46;6.80;86.80
43808;DHT22;29438;50.664;10.098;2023-12-28T09:12:11;6.80;86.80
43808;DHT22;29438;50.664;10.098;2023-12-28T09:14:37;6.80;86.90
43808;DHT22;29438;50.664;10.098;2023-12-28T09:17:02;6.90;86.90
43808;DHT22;29438;50.664;10.098;2023-12-28T09:19:28;7.00;86.40
43808;DHT22;29438;50.664;10.098;2023-12-28T09:21:53;7.10;86.10
43808;DHT22;29438;50.664;10.098;2023-12-28T09:24:19;7.20;86.00
43808;DHT22;29438;50.664;10.098;2023-12-28T09:26:45;7.20;85.90
43808;DHT22;29438;50.664;10.098;2023-12-28T09:29:10;7.20;85.60
43808;DHT22;29438;50.664;10.098;2023-12-28T09:31:37;7.20;85.70
43808;DHT22;29438;50.664;10.098;2023-12-28T09:34:03;7.20;85.60
43808;DHT22;29438;50.664;10.098;2023-12-28T09:36:30;7.20;85.60
43808;DHT22;29438;50.664;10.098;2023-12-28T09:38:55;7.20;85.30
43808;DHT22;29438;50.664;10.098;2023-12-28T09:41:23;7.30;85.30
43808;DHT22;29438;50.664;10.098;2023-12-28T09:43:54;7.30;85.10
43808;DHT22;29438;50.664;10.098;2023-12-28T09:46:23;7.30;85.00
43808;DHT22;29438;50.664;10.098;2023-12-28T09:48:49;7.30;85.00
43808;DHT22;29438;50.664;10.098;2023-12-28T09:51:15;7.40;85.00
43808;DHT22;29438;50.664;10.098;2023-12-28T09:53:42;7.50;84.50
43808;DHT22;29438;50.664;10.098;2023-12-28T09:56:08;7.40;84.70
43808;DHT22;29438;50.664;10.098;2023-12-28T09:58:35;7.40;84.70
43808;DHT22;29438;50.664;10.098;2023-12-28T10:01:02;7.50;84.60
43808;DHT22;29438;50.664;10.098;2023-12-28T10:03:28;7.60;84.70
43808;DHT22;29438;50.664;10.098;2023-12-28T10:05:54;7.70;84.50
43808;DHT22;29438;50.664;10.098;2023-12-28T10:08:19;7.70;84.30
43808;DHT22;29438;50.664;10.098;2023-12-28T10:10:45;7.60;84.10
43808;DHT22;29438;50.664;10.098;2023-12-28T10:13:17;7.70;84.20
43808;DHT22;29438;50.664;10.098;2023-12-28T10:15:43;7.80;84.00
43808;DHT22;29438;50.664;10.098;2023-12-28T10:18:09;8.00;83.90
43808;DHT22;29438;50.664;10.098;2023-12-28T10:20:35;8.00;83.60
43808;DHT22;29438;50.664;10.098;2023-12-28T10:23:00;7.90;83.50
43808;DHT22;29438;50.664;10.098;2023-12-28T10:25:27;8.00;83.30
43808;DHT22;29438;50.664;10.098;2023-12-28T10:27:53;8.20;83.20
43808;DHT22;29438;50.664;10.098;2023-12-28T10:30:20;8.10;82.90
43808;DHT22;29438;50.664;10.098;2023-12-28T10:32:46;8.10;83.00
43808;DHT22;29438;50.664;10.098;2023-12-28T10:35:12;8.20;83.50
43808;DHT22;29438;50.664;10.098;2023-12-28T10:37:40;8.40;82.70
43808;DHT22;29438;50.664;10.098;2023-12-28T10:40:14;8.40;82.20
43808;DHT22;29438;50.664;10.098;2023-12-28T10:42:54;8.60;82.00
43808;DHT22;29438;50.664;10.098;2023-12-28T10:45:25;8.60;81.60
43808;DHT22;29438;50.664;10.098;2023-12-28T10:48:06;8.50;81.70
43808;DHT22;29438;50.664;10.098;2023-12-28T10:50:43;8.70;81.70
43808;DHT22;29438;50.664;10.098;2023-12-28T10:53:51;8.90;80.90
43808;DHT22;29438;50.664;10.098;2023-12-28T10:56:41;9.10;80.30
43808;DHT22;29438;50.664;10.098;2023-12-28T11:01:42;9.30;79.50
43808;DHT22;29438;50.664;10.098;2023-12-28T11:04:28;9.40;79.30
43808;DHT22;29438;50.664;10.098;2023-12-28T11:06:57;9.50;79.00
43808;DHT22;29438;50.664;10.098;2023-12-28T11:09:24;9.40;79.10
43808;DHT22;29438;50.664;10.098;2023-12-28T11:11:51;9.40;79.30
43808;DHT22;29438;50.664;10.098;2023-12-28T11:14:19;9.30;79.50
43808;DHT22;29438;50.664;10.098;2023-12-28T11:16:45;9.40;78.80
43808;DHT22;29438;50.664;10.098;2023-12-28T11:19:12;9.30;78.90
43808;DHT22;29438;50.664;10.098;2023-12-28T11:21:38;9.10;79.20
43808;DHT22;29438;50.664;10.098;2023-12-28T11:24:05;9.00;79.70
43808;DHT22;29438;50.664;10.098;2023-12-28T11:26:30;8.80;79.80
43808;DHT22;29438;50.664;10.098;2023-12-28T11:29:05;8.70;80.60
43808;DHT22;29438;50.664;10.098;2023-12-28T11:31:34;8.50;80.50
43808;DHT22;29438;50.664;10.098;2023-12-28T11:34:01;8.40;81.30
43808;DHT22;29438;50.664;10.098;2023-12-28T11:36:37;8.30;81.40
43808;DHT22;29438;50.664;10.098;2023-12-28T11:39:06;8.30;81.20
43808;DHT22;29438;50.664;10.098;2023-12-28T11:41:32;8.30;81.40
43808;DHT22;29438;50.664;10.098;2023-12-28T11:44:02;8.20;81.40
43808;DHT22;29438;50.664;10.098;2023-12-28T11:46:30;8.20;81.30
43808;DHT22;29438;50.664;10.098;2023-12-28T11:49:05;8.10;81.70
43808;DHT22;29438;50.664;10.098;2023-12-28T11:51:33;8.10;81.90
43808;DHT22;29438;50.664;10.098;2023-12-28T11:53:59;8.00;81.90
43808;DHT22;29438;50.664;10.098;2023-12-28T11:56:25;8.00;82.00
43808;DHT22;29438;50.664;10.098;2023-12-28T11:58:51;8.00;82.20
43808;DHT22;29438;50.664;10.098;2023-12-28T12:01:17;8.00;82.40
43808;DHT22;29438;50.664;10.098;2023-12-28T12:03:42;8.10;82.00
43808;DHT22;29438;50.664;10.098;2023-12-28T12:06:08;8.20;82.00
43808;DHT22;29438;50.664;10.098;2023-12-28T12:08:34;8.20;81.60
43808;DHT22;29438;50.664;10.098;2023-12-28T12:11:01;8.30;81.80
43808;DHT22;29438;50.664;10.098;2023-12-28T12:13:29;8.30;81.40
43808;DHT22;29438;50.664;10.098;2023-12-28T12:15:55;8.30;81.40
43808;DHT22;29438;50.664;10.098;2023-12-28T12:18:22;8.30;81.30
43808;DHT22;29438;50.664;10.098;2023-12-28T12:20:48;8.30;81.00
43808;DHT22;29438;50.664;10.098;2023-12-28T12:23:13;8.30;80.80
43808;DHT22;29438;50.664;10.098;2023-12-28T12:25:41;8.20;81.10
43808;DHT22;29438;50.664;10.098;2023-12-28T12:28:06;8.30;80.80
43808;DHT22;29438;50.664;10.098;2023-12-28T12:30:32;8.40;81.50
43808;DHT22;29438;50.664;10.098;2023-12-28T12:32:58;8.30;81.30
43808;DHT22;29438;50.664;10.098;2023-12-28T12:35:24;8.30;80.90
43808;DHT22;29438;50.664;10.098;2023-12-28T12:37:50;8.30;80.60
43808;DHT22;29438;50.664;10.098;2023-12-28T12:40:17;8.30;80.30
43808;DHT22;29438;50.664;10.098;2023-12-28T12:42:54;8.30;80.80
43808;DHT22;29438;50.664;10.098;2023-12-28T12:45:20;8.20;80.30
43808;DHT22;29438;50.664;10.098;2023-12-28T12:47:47;8.10;80.80
43808;DHT22;29438;50.664;10.098;2023-12-28T12:50:12;8.00;80.60
43808;DHT22;29438;50.664;10.098;2023-12-28T12:52:38;8.00;80.60
43808;DHT22;29438;50.664;10.098;2023-12-28T12:55:04;7.90;81.00
43808;DHT22;29438;50.664;10.098;2023-12-28T12:57:30;7.90;80.90
43808;DHT22;29438;50.664;10.098;2023-12-28T12:59:56;8.00;81.40
43808;DHT22;29438;50.664;10.098;2023-12-28T13:02:23;7.90;81.20
43808;DHT22;29438;50.664;10.098;2023-12-28T13:04:51;7.80;81.60
43808;DHT22;29438;50.664;10.098;2023-12-28T13:07:17;7.70;81.80
43808;DHT22;29438;50.664;10.098;2023-12-28T13:09:43;7.70;81.90
43808;DHT22;29438;50.664;10.098;2023-12-28T13:12:08;7.70;82.20
43808;DHT22;29438;50.664;10.098;2023-12-28T13:14:34;7.60;82.30
43808;DHT22;29438;50.664;10.098;2023-12-28T13:16:59;7.50;82.20
43808;DHT22;29438;50.664;10.098;2023-12-28T13:19:25;7.50;82.00
43808;DHT22;29438;50.664;10.098;2023-12-28T13:21:50;7.50;82.40
43808;DHT22;29438;50.664;10.098;2023-12-28T13:24:16;7.50;82.40
43808;DHT22;29438;50.664;10.098;2023-12-28T13:26:41;7.30;82.90
43808;DHT22;29438;50.664;10.098;2023-12-28T13:29:07;7.30;83.10
43808;DHT22;29438;50.664;10.098;2023-12-28T13:31:32;7.30;82.80
43808;DHT22;29438;50.664;10.098;2023-12-28T13:33:58;7.30;82.80
43808;DHT22;29438;50.664;10.098;2023-12-28T13:36:24;7.30;83.10
43808;DHT22;29438;50.664;10.098;2023-12-28T13:38:49;7.30;83.00
43808;DHT22;29438;50.664;10.098;2023-12-28T13:41:15;7.20;82.80
43808;DHT22;29438;50.664;10.098;2023-12-28T13:43:40;7.20;83.10
43808;DHT22;29438;50.664;10.098;2023-12-28T13:46:06;7.20;83.40
43808;DHT22;29438;50.664;10.098;2023-12-28T13:48:31;7.20;83.40
43808;DHT22;29438;50.664;10.098;2023-12-28T13:50:57;7.20;83.30
43808;DHT22;29438;50.664;10.098;2023-12-28T13:53:22;7.20;83.90
43808;DHT22;29438;50.664;10.098;2023-12-28T13:55:48;7.20;83.30
43808;DHT22;29438;50.664;10.098;2023-12-28T13:58:13;7.10;83.40
43808;DHT22;29438;50.664;10.098;2023-12-28T14:00:40;7.10;83.30
43808;DHT22;29438;50.664;10.098;2023-12-28T14:03:05;7.10;83.40
43808;DHT22;29438;50.664;10.098;2023-12-28T14:05:31;7.20;82.60
43808;DHT22;29438;50.664;10.098;2023-12-28T14:07:56;7.10;82.80
43808;DHT22;29438;50.664;10.098;2023-12-28T14:10:22;7.00;83.10
43808;DHT22;29438;50.664;10.098;2023-12-28T14:12:47;7.00;83.30
43808;DHT22;29438;50.664;10.098;2023-12-28T14:15:13;6.90;83.40
43808;DHT22;29438;50.664;10.098;2023-12-28T14:17:41;7.00;83.40
43808;DHT22;29438;50.664;10.098;2023-12-28T14:20:07;7.00;83.20
43808;DHT22;29438;50.664;10.098;2023-12-28T14:22:37;6.90;83.50
43808;DHT22;29438;50.664;10.098;2023-12-28T14:25:03;6.90;83.50
43808;DHT22;29438;50.664;10.098;2023-12-28T14:27:29;6.90;83.40
43808;DHT22;29438;50.664;10.098;2023-12-28T14:29:55;6.80;83.40
43808;DHT22;29438;50.664;10.098;2023-12-28T14:32:21;6.80;83.40
43808;DHT22;29438;50.664;10.098;2023-12-28T14:34:47;6.70;83.80
43808;DHT22;29438;50.664;10.098;2023-12-28T14:37:13;6.80;83.50
43808;DHT22;29438;50.664;10.098;2023-12-28T14:39:38;6.80;83.40
43808;DHT22;29438;50.664;10.098;2023-12-28T14:42:04;6.90;83.40
43808;DHT22;29438;50.664;10.098;2023-12-28T14:44:29;6.80;83.60
43808;DHT22;29438;50.664;10.098;2023-12-28T14:46:55;6.90;83.30
43808;DHT22;29438;50.664;10.098;2023-12-28T14:49:20;6.90;83.40
43808;DHT22;29438;50.664;10.098;2023-12-28T14:51:46;6.90;83.60
43808;DHT22;29438;50.664;10.098;2023-12-28T14:54:11;6.80;83.50
43808;DHT22;29438;50.664;10.098;2023-12-28T14:56:37;6.90;83.50
43808;DHT22;29438;50.664;10.098;2023-12-28T14:59:03;6.80;83.60
43808;DHT22;29438;50.664;10.098;2023-12-28T15:01:28;6.90;83.40
43808;DHT22;29438;50.664;10.098;2023-12-28T15:03:54;6.80;83.60
43808;DHT22;29438;50.664;10.098;2023-12-28T15:06:19;6.70;83.70
43808;DHT22;29438;50.664;10.098;2023-12-28T15:08:45;6.70;83.90
43808;DHT22;29438;50.664;10.098;2023-12-28T15:11:10;6.50;84.50
43808;DHT22;29438;50.664;10.098;2023-12-28T15:13:39;6.60;84.60
43808;DHT22;29438;50.664;10.098;2023-12-28T15:16:05;6.60;84.30
43808;DHT22;29438;50.664;10.098;2023-12-28T15:18:32;6.50;84.40
43808;DHT22;29438;50.664;10.098;2023-12-28T15:20:57;6.40;84.60
43808;DHT22;29438;50.664;10.098;2023-12-28T15:23:24;6.40;85.30
43808;DHT22;29438;50.664;10.098;2023-12-28T15:25:52;6.40;85.40
43808;DHT22;29438;50.664;10.098;2023-12-28T15:28:18;6.40;85.70
43808;DHT22;29438;50.664;10.098;2023-12-28T15:30:43;6.40;86.10